Chesapeake — WDD3041 — position and weather

sailwx.info

Track history (hours):
 
Tides and Currents Weather Stations Pressure Air Temp Water Temp Dewpoint Dewpoint Depression Visibility Wind Speed Wind Dir Waves Ship Positions

Chesapeake

More information available from US FCC via Universal Licensing System and Coast Guard Vessel Documentation Center.

Last reported at 2014-Aug-27 09:24 UTC. Time now 2014-Aug-29 08:09 UTC.
Position N 39°49' W 075°24'.

Length 34 m; draft 16 m.

Type: Tug. MMSI: 367123040.

Date/timePositionNaut miles runAvg speedWind from/ knotsBaromVisibWave heightAir tempDewpointWater temp
2014-Aug-27 09:24N 39°49' W 075°24'0 0.0
2014-Aug-27 08:20N 39°48' W 075°24'0 0.3
2014-Aug-27 07:33N 39°49' W 075°24'0 0.0
2014-Aug-27 06:31N 39°49' W 075°24'0 0.0
2014-Aug-27 05:29N 39°49' W 075°24'0 0.0
2014-Aug-27 04:24N 39°49' W 075°24'0 0.0
2014-Aug-27 03:14N 39°49' W 075°24'8 0.5
2014-Aug-26 10:13N 39°51' W 075°14'  
2014-Aug-22 00:06N 39°53' W 075°12'1 0.1
2014-Aug-21 09:09N 39°54' W 075°12'0 0.0
2014-Aug-21 08:22N 39°54' W 075°12'0 0.0
2014-Aug-21 07:23N 39°54' W 075°12'2 0.9
2014-Aug-21 04:29N 39°53' W 075°09'0 0.4
2014-Aug-21 03:33N 39°53' W 075°10'8 7.9
2014-Aug-21 02:33N 39°51' W 075°20'4 0.2
2014-Aug-20 05:21N 39°49' W 075°24'0 0.0
2014-Aug-20 04:10N 39°49' W 075°24'0 0.0
2014-Aug-20 03:31N 39°49' W 075°24'  
Track history (hours):
 
Tides and Currents Weather Stations Pressure Air Temp Water Temp Dewpoint Dewpoint Depression Visibility Wind Speed Wind Dir Waves Ship Positions

Chesapeake

More information available from US FCC via Universal Licensing System and Coast Guard Vessel Documentation Center.

Last reported at 2014-Aug-27 09:24 UTC. Time now 2014-Aug-29 08:09 UTC.
Position N 39°49' W 075°24'.

Length 34 m; draft 16 m.

Type: Tug. MMSI: 367123040.

Date/timePositionNaut miles runAvg speedWind from/ knotsBaromVisibWave heightAir tempDewpointWater temp
2014-Aug-27 09:24N 39°49' W 075°24'0 0.0
2014-Aug-27 08:20N 39°48' W 075°24'0 0.3
2014-Aug-27 07:33N 39°49' W 075°24'0 0.0
2014-Aug-27 06:31N 39°49' W 075°24'0 0.0
2014-Aug-27 05:29N 39°49' W 075°24'0 0.0
2014-Aug-27 04:24N 39°49' W 075°24'0 0.0
2014-Aug-27 03:14N 39°49' W 075°24'8 0.5
2014-Aug-26 10:13N 39°51' W 075°14'  
2014-Aug-22 00:06N 39°53' W 075°12'1 0.1
2014-Aug-21 09:09N 39°54' W 075°12'0 0.0
2014-Aug-21 08:22N 39°54' W 075°12'0 0.0
2014-Aug-21 07:23N 39°54' W 075°12'2 0.9
2014-Aug-21 04:29N 39°53' W 075°09'0 0.4
2014-Aug-21 03:33N 39°53' W 075°10'8 7.9
2014-Aug-21 02:33N 39°51' W 075°20'4 0.2
2014-Aug-20 05:21N 39°49' W 075°24'0 0.0
2014-Aug-20 04:10N 39°49' W 075°24'0 0.0
2014-Aug-20 03:31N 39°49' W 075°24'  

Dump ship's entire track history